sensor_id;sensor_type;location;lat;lon;timestamp;temperature;humidity
75961;SHT30;64644;48.914;2.254;2023-10-09T00:00:11;20.17;66.95
75961;SHT30;64644;48.914;2.254;2023-10-09T00:02:56;20.16;66.96
75961;SHT30;64644;48.914;2.254;2023-10-09T00:05:23;20.13;67.07
75961;SHT30;64644;48.914;2.254;2023-10-09T00:08:03;20.13;67.13
75961;SHT30;64644;48.914;2.254;2023-10-09T00:10:29;20.13;67.28
75961;SHT30;64644;48.914;2.254;2023-10-09T00:13:01;20.10;67.23
75961;SHT30;64644;48.914;2.254;2023-10-09T00:15:27;20.13;67.21
75961;SHT30;64644;48.914;2.254;2023-10-09T00:17:53;20.10;67.09
75961;SHT30;64644;48.914;2.254;2023-10-09T00:20:21;20.09;67.10
75961;SHT30;64644;48.914;2.254;2023-10-09T00:22:55;20.07;67.24
75961;SHT30;64644;48.914;2.254;2023-10-09T00:25:22;20.09;67.28
75961;SHT30;64644;48.914;2.254;2023-10-09T00:27:49;20.06;67.19
75961;SHT30;64644;48.914;2.254;2023-10-09T00:30:16;20.03;67.23
75961;SHT30;64644;48.914;2.254;2023-10-09T00:32:44;20.00;67.21
75961;SHT30;64644;48.914;2.254;2023-10-09T00:35:31;19.97;67.26
75961;SHT30;64644;48.914;2.254;2023-10-09T00:38:09;19.94;67.28
75961;SHT30;64644;48.914;2.254;2023-10-09T00:40:47;19.94;67.32
75961;SHT30;64644;48.914;2.254;2023-10-09T00:43:22;19.92;67.36
75961;SHT30;64644;48.914;2.254;2023-10-09T00:45:55;19.90;67.38
75961;SHT30;64644;48.914;2.254;2023-10-09T00:48:21;19.89;67.46
75961;SHT30;64644;48.914;2.254;2023-10-09T00:50:57;19.85;67.50
75961;SHT30;64644;48.914;2.254;2023-10-09T00:53:25;19.80;67.48
75961;SHT30;64644;48.914;2.254;2023-10-09T00:55:59;19.79;67.50
75961;SHT30;64644;48.914;2.254;2023-10-09T00:58:32;19.79;67.65
75961;SHT30;64644;48.914;2.254;2023-10-09T01:01:01;19.76;67.71
75961;SHT30;64644;48.914;2.254;2023-10-09T01:03:29;19.79;67.75
75961;SHT30;64644;48.914;2.254;2023-10-09T01:06:00;19.77;67.70
75961;SHT30;64644;48.914;2.254;2023-10-09T01:08:41;19.79;67.67
75961;SHT30;64644;48.914;2.254;2023-10-09T01:11:07;19.73;67.72
75961;SHT30;64644;48.914;2.254;2023-10-09T01:13:36;19.76;67.71
75961;SHT30;64644;48.914;2.254;2023-10-09T01:16:19;19.73;67.72
75961;SHT30;64644;48.914;2.254;2023-10-09T01:18:51;19.72;67.74
75961;SHT30;64644;48.914;2.254;2023-10-09T01:21:20;19.68;67.71
75961;SHT30;64644;48.914;2.254;2023-10-09T01:23:53;19.66;67.70
75961;SHT30;64644;48.914;2.254;2023-10-09T01:26:31;19.66;67.74
75961;SHT30;64644;48.914;2.254;2023-10-09T01:28:59;19.63;67.75
75961;SHT30;64644;48.914;2.254;2023-10-09T01:31:26;19.65;67.82
75961;SHT30;64644;48.914;2.254;2023-10-09T01:33:52;19.62;67.85
75961;SHT30;64644;48.914;2.254;2023-10-09T01:36:25;19.59;67.90
75961;SHT30;64644;48.914;2.254;2023-10-09T01:39:00;19.61;67.87
75961;SHT30;64644;48.914;2.254;2023-10-09T01:41:33;19.61;67.81
75961;SHT30;64644;48.914;2.254;2023-10-09T01:43:59;19.55;67.86
75961;SHT30;64644;48.914;2.254;2023-10-09T01:46:35;19.54;67.85
75961;SHT30;64644;48.914;2.254;2023-10-09T01:49:00;19.54;67.86
75961;SHT30;64644;48.914;2.254;2023-10-09T01:51:33;19.52;67.97
75961;SHT30;64644;48.914;2.254;2023-10-09T01:54:02;19.51;68.01
75961;SHT30;64644;48.914;2.254;2023-10-09T01:56:27;19.51;67.97
75961;SHT30;64644;48.914;2.254;2023-10-09T01:58:53;19.48;68.04
75961;SHT30;64644;48.914;2.254;2023-10-09T02:01:22;19.49;68.08
75961;SHT30;64644;48.914;2.254;2023-10-09T02:03:48;19.47;68.08
75961;SHT30;64644;48.914;2.254;2023-10-09T02:06:17;19.45;68.09
75961;SHT30;64644;48.914;2.254;2023-10-09T02:08:57;19.44;68.16
75961;SHT30;64644;48.914;2.254;2023-10-09T02:11:22;19.42;68.07
75961;SHT30;64644;48.914;2.254;2023-10-09T02:14:08;19.41;68.04
75961;SHT30;64644;48.914;2.254;2023-10-09T02:16:47;19.39;68.04
75961;SHT30;64644;48.914;2.254;2023-10-09T02:19:31;19.38;68.12
75961;SHT30;64644;48.914;2.254;2023-10-09T02:22:00;19.36;68.21
75961;SHT30;64644;48.914;2.254;2023-10-09T02:24:31;19.32;68.29
75961;SHT30;64644;48.914;2.254;2023-10-09T02:27:16;19.32;68.34
75961;SHT30;64644;48.914;2.254;2023-10-09T02:30:06;19.31;68.39
75961;SHT30;64644;48.914;2.254;2023-10-09T02:32:42;19.28;68.41
75961;SHT30;64644;48.914;2.254;2023-10-09T02:35:09;19.28;68.39
75961;SHT30;64644;48.914;2.254;2023-10-09T02:37:44;19.27;68.36
75961;SHT30;64644;48.914;2.254;2023-10-09T02:40:12;19.25;68.38
75961;SHT30;64644;48.914;2.254;2023-10-09T02:42:47;19.23;68.35
75961;SHT30;64644;48.914;2.254;2023-10-09T02:45:15;19.18;68.42
75961;SHT30;64644;48.914;2.254;2023-10-09T02:47:49;19.17;68.54
75961;SHT30;64644;48.914;2.254;2023-10-09T02:50:15;19.14;68.47
75961;SHT30;64644;48.914;2.254;2023-10-09T02:52:48;19.11;68.61
75961;SHT30;64644;48.914;2.254;2023-10-09T02:55:19;19.06;68.67
75961;SHT30;64644;48.914;2.254;2023-10-09T02:57:53;19.02;68.84
75961;SHT30;64644;48.914;2.254;2023-10-09T03:00:30;19.00;68.89
75961;SHT30;64644;48.914;2.254;2023-10-09T03:02:58;19.00;68.97
75961;SHT30;64644;48.914;2.254;2023-10-09T03:05:26;18.97;69.07
75961;SHT30;64644;48.914;2.254;2023-10-09T03:07:54;18.99;69.08
75961;SHT30;64644;48.914;2.254;2023-10-09T03:10:23;19.00;69.16
75961;SHT30;64644;48.914;2.254;2023-10-09T03:12:49;19.00;69.29
75961;SHT30;64644;48.914;2.254;2023-10-09T03:15:21;18.97;69.24
75961;SHT30;64644;48.914;2.254;2023-10-09T03:17:47;19.03;69.22
75961;SHT30;64644;48.914;2.254;2023-10-09T03:20:15;18.99;69.19
75961;SHT30;64644;48.914;2.254;2023-10-09T03:22:44;18.99;69.20
75961;SHT30;64644;48.914;2.254;2023-10-09T03:25:13;18.99;69.10
75961;SHT30;64644;48.914;2.254;2023-10-09T03:27:42;18.96;69.07
75961;SHT30;64644;48.914;2.254;2023-10-09T03:30:11;18.97;69.07
75961;SHT30;64644;48.914;2.254;2023-10-09T03:32:43;18.95;69.01
75961;SHT30;64644;48.914;2.254;2023-10-09T03:35:09;18.93;68.99
75961;SHT30;64644;48.914;2.254;2023-10-09T03:37:39;18.90;68.94
75961;SHT30;64644;48.914;2.254;2023-10-09T03:40:05;18.89;68.99
75961;SHT30;64644;48.914;2.254;2023-10-09T03:42:32;18.87;68.93
75961;SHT30;64644;48.914;2.254;2023-10-09T03:45:01;18.85;68.90
75961;SHT30;64644;48.914;2.254;2023-10-09T03:47:31;18.80;68.91
75961;SHT30;64644;48.914;2.254;2023-10-09T03:49:56;18.80;68.89
75961;SHT30;64644;48.914;2.254;2023-10-09T03:52:27;18.75;68.92
75961;SHT30;64644;48.914;2.254;2023-10-09T03:54:53;18.68;68.99
75961;SHT30;64644;48.914;2.254;2023-10-09T03:57:19;18.70;68.87
75961;SHT30;64644;48.914;2.254;2023-10-09T03:59:45;18.62;68.94
75961;SHT30;64644;48.914;2.254;2023-10-09T04:02:13;18.62;69.03
75961;SHT30;64644;48.914;2.254;2023-10-09T04:04:38;18.61;69.10
75961;SHT30;64644;48.914;2.254;2023-10-09T04:07:03;18.59;69.05
75961;SHT30;64644;48.914;2.254;2023-10-09T04:09:31;18.58;69.07
75961;SHT30;64644;48.914;2.254;2023-10-09T04:12:05;18.56;69.20
75961;SHT30;64644;48.914;2.254;2023-10-09T04:14:42;18.55;69.19
75961;SHT30;64644;48.914;2.254;2023-10-09T04:17:20;18.52;69.28
75961;SHT30;64644;48.914;2.254;2023-10-09T04:19:58;18.53;69.27
75961;SHT30;64644;48.914;2.254;2023-10-09T04:22:42;18.53;69.32
75961;SHT30;64644;48.914;2.254;2023-10-09T04:25:19;18.56;69.38
75961;SHT30;64644;48.914;2.254;2023-10-09T04:27:57;18.56;69.31
75961;SHT30;64644;48.914;2.254;2023-10-09T04:30:38;18.55;69.25
75961;SHT30;64644;48.914;2.254;2023-10-09T04:33:09;18.56;69.38
75961;SHT30;64644;48.914;2.254;2023-10-09T04:36:10;18.55;69.38
75961;SHT30;64644;48.914;2.254;2023-10-09T04:38:54;18.55;69.34
75961;SHT30;64644;48.914;2.254;2023-10-09T04:41:31;18.56;69.32
75961;SHT30;64644;48.914;2.254;2023-10-09T04:44:18;18.53;69.31
75961;SHT30;64644;48.914;2.254;2023-10-09T04:46:54;18.52;69.31
75961;SHT30;64644;48.914;2.254;2023-10-09T04:49:46;18.55;69.40
75961;SHT30;64644;48.914;2.254;2023-10-09T04:52:17;18.52;69.36
75961;SHT30;64644;48.914;2.254;2023-10-09T04:55:03;18.51;69.29
75961;SHT30;64644;48.914;2.254;2023-10-09T04:57:36;18.49;69.32
75961;SHT30;64644;48.914;2.254;2023-10-09T05:00:12;18.49;69.36
75961;SHT30;64644;48.914;2.254;2023-10-09T05:02:57;18.48;69.39
75961;SHT30;64644;48.914;2.254;2023-10-09T05:05:28;18.47;69.38
75961;SHT30;64644;48.914;2.254;2023-10-09T05:08:09;18.47;69.26
75961;SHT30;64644;48.914;2.254;2023-10-09T05:10:47;18.47;69.25
75961;SHT30;64644;48.914;2.254;2023-10-09T05:13:22;18.44;69.29
75961;SHT30;64644;48.914;2.254;2023-10-09T05:16:08;18.42;69.25
75961;SHT30;64644;48.914;2.254;2023-10-09T05:18:47;18.41;69.30
75961;SHT30;64644;48.914;2.254;2023-10-09T05:21:31;18.42;69.36
75961;SHT30;64644;48.914;2.254;2023-10-09T05:24:00;18.40;69.39
75961;SHT30;64644;48.914;2.254;2023-10-09T05:26:51;18.40;69.40
75961;SHT30;64644;48.914;2.254;2023-10-09T05:29:24;18.38;69.45
75961;SHT30;64644;48.914;2.254;2023-10-09T05:32:05;18.38;69.46
75961;SHT30;64644;48.914;2.254;2023-10-09T05:34:31;18.38;69.46
75961;SHT30;64644;48.914;2.254;2023-10-09T05:37:06;18.37;69.41
75961;SHT30;64644;48.914;2.254;2023-10-09T05:39:54;18.37;69.40
75961;SHT30;64644;48.914;2.254;2023-10-09T05:42:30;18.35;69.37
75961;SHT30;64644;48.914;2.254;2023-10-09T05:45:15;18.31;69.34
75961;SHT30;64644;48.914;2.254;2023-10-09T05:48:00;18.30;69.41
75961;SHT30;64644;48.914;2.254;2023-10-09T05:50:28;18.27;69.72
75961;SHT30;64644;48.914;2.254;2023-10-09T05:52:57;18.27;69.76
75961;SHT30;64644;48.914;2.254;2023-10-09T05:55:24;18.24;69.85
75961;SHT30;64644;48.914;2.254;2023-10-09T05:57:53;18.21;69.61
75961;SHT30;64644;48.914;2.254;2023-10-09T06:00:28;18.20;69.70
75961;SHT30;64644;48.914;2.254;2023-10-09T06:03:12;18.16;69.83
75961;SHT30;64644;48.914;2.254;2023-10-09T06:05:44;18.16;69.94
75961;SHT30;64644;48.914;2.254;2023-10-09T06:08:22;18.16;69.98
75961;SHT30;64644;48.914;2.254;2023-10-09T06:11:10;18.18;69.92
75961;SHT30;64644;48.914;2.254;2023-10-09T06:13:55;18.18;69.90
75961;SHT30;64644;48.914;2.254;2023-10-09T06:16:32;18.16;69.84
75961;SHT30;64644;48.914;2.254;2023-10-09T06:19:11;18.18;69.86
75961;SHT30;64644;48.914;2.254;2023-10-09T06:21:54;18.17;69.81
75961;SHT30;64644;48.914;2.254;2023-10-09T06:24:38;18.13;69.74
75961;SHT30;64644;48.914;2.254;2023-10-09T06:27:10;18.13;69.66
75961;SHT30;64644;48.914;2.254;2023-10-09T06:29:37;18.11;69.78
75961;SHT30;64644;48.914;2.254;2023-10-09T06:32:15;18.08;69.76
75961;SHT30;64644;48.914;2.254;2023-10-09T06:34:52;18.08;69.82
75961;SHT30;64644;48.914;2.254;2023-10-09T06:37:19;18.08;69.79
75961;SHT30;64644;48.914;2.254;2023-10-09T06:39:50;18.07;69.80
75961;SHT30;64644;48.914;2.254;2023-10-09T06:42:35;18.06;69.81
75961;SHT30;64644;48.914;2.254;2023-10-09T06:47:31;18.04;69.93
75961;SHT30;64644;48.914;2.254;2023-10-09T06:50:10;18.04;69.91
75961;SHT30;64644;48.914;2.254;2023-10-09T06:52:56;18.03;70.03
75961;SHT30;64644;48.914;2.254;2023-10-09T06:55:38;18.06;69.96
75961;SHT30;64644;48.914;2.254;2023-10-09T06:58:29;18.07;69.98
75961;SHT30;64644;48.914;2.254;2023-10-09T07:01:07;18.06;69.88
75961;SHT30;64644;48.914;2.254;2023-10-09T07:03:50;18.10;70.08
75961;SHT30;64644;48.914;2.254;2023-10-09T07:06:20;18.13;69.97
75961;SHT30;64644;48.914;2.254;2023-10-09T07:09:01;18.14;70.07
75961;SHT30;64644;48.914;2.254;2023-10-09T07:11:36;18.14;69.63
75961;SHT30;64644;48.914;2.254;2023-10-09T07:14:13;18.13;69.58
75961;SHT30;64644;48.914;2.254;2023-10-09T07:17:10;18.13;69.93
75961;SHT30;64644;48.914;2.254;2023-10-09T07:19:52;18.13;70.20
75961;SHT30;64644;48.914;2.254;2023-10-09T07:22:23;18.18;70.30
75961;SHT30;64644;48.914;2.254;2023-10-09T07:24:55;18.24;70.31
75961;SHT30;64644;48.914;2.254;2023-10-09T07:27:24;18.27;70.37
75961;SHT30;64644;48.914;2.254;2023-10-09T07:30:09;18.34;70.35
75961;SHT30;64644;48.914;2.254;2023-10-09T07:32:54;18.41;70.30
75961;SHT30;64644;48.914;2.254;2023-10-09T07:35:20;18.45;70.22
75961;SHT30;64644;48.914;2.254;2023-10-09T07:38:04;18.49;69.98
75961;SHT30;64644;48.914;2.254;2023-10-09T07:40:32;18.55;69.82
75961;SHT30;64644;48.914;2.254;2023-10-09T07:43:17;18.61;69.85
75961;SHT30;64644;48.914;2.254;2023-10-09T07:45:43;18.68;69.82
75961;SHT30;64644;48.914;2.254;2023-10-09T07:48:27;18.77;69.68
75961;SHT30;64644;48.914;2.254;2023-10-09T07:50:52;18.83;69.74
75961;SHT30;64644;48.914;2.254;2023-10-09T07:53:23;18.92;69.70
75961;SHT30;64644;48.914;2.254;2023-10-09T07:55:55;18.99;69.62
75961;SHT30;64644;48.914;2.254;2023-10-09T07:58:24;19.06;69.32
75961;SHT30;64644;48.914;2.254;2023-10-09T08:00:56;19.13;69.25
75961;SHT30;64644;48.914;2.254;2023-10-09T08:03:46;19.20;69.27
75961;SHT30;64644;48.914;2.254;2023-10-09T08:06:12;19.25;69.22
75961;SHT30;64644;48.914;2.254;2023-10-09T08:08:56;19.34;69.03
75961;SHT30;64644;48.914;2.254;2023-10-09T08:11:31;19.39;68.87
75961;SHT30;64644;48.914;2.254;2023-10-09T08:14:06;19.48;68.80
75961;SHT30;64644;48.914;2.254;2023-10-09T08:16:47;19.57;68.93
75961;SHT30;64644;48.914;2.254;2023-10-09T08:19:12;19.62;68.75
75961;SHT30;64644;48.914;2.254;2023-10-09T08:22:00;19.72;68.89
75961;SHT30;64644;48.914;2.254;2023-10-09T08:24:44;19.79;68.36
75961;SHT30;64644;48.914;2.254;2023-10-09T08:27:17;19.86;67.91
75961;SHT30;64644;48.914;2.254;2023-10-09T08:30:06;19.93;68.40
75961;SHT30;64644;48.914;2.254;2023-10-09T08:32:52;20.07;67.57
75961;SHT30;64644;48.914;2.254;2023-10-09T08:35:32;20.13;67.30
75961;SHT30;64644;48.914;2.254;2023-10-09T08:38:11;20.21;67.28
75961;SHT30;64644;48.914;2.254;2023-10-09T08:40:39;20.35;67.32
75961;SHT30;64644;48.914;2.254;2023-10-09T08:43:21;20.44;67.35
75961;SHT30;64644;48.914;2.254;2023-10-09T08:45:47;20.52;67.39
75961;SHT30;64644;48.914;2.254;2023-10-09T08:48:13;20.62;67.34
75961;SHT30;64644;48.914;2.254;2023-10-09T08:50:48;20.68;67.23
75961;SHT30;64644;48.914;2.254;2023-10-09T08:53:15;20.76;67.28
75961;SHT30;64644;48.914;2.254;2023-10-09T08:55:42;20.84;67.16
75961;SHT30;64644;48.914;2.254;2023-10-09T08:58:08;20.94;66.72
75961;SHT30;64644;48.914;2.254;2023-10-09T09:00:50;21.04;66.56
75961;SHT30;64644;48.914;2.254;2023-10-09T09:03:17;21.10;65.78
75961;SHT30;64644;48.914;2.254;2023-10-09T09:05:47;21.15;65.31
75961;SHT30;64644;48.914;2.254;2023-10-09T09:08:25;21.23;64.96
75961;SHT30;64644;48.914;2.254;2023-10-09T09:11:05;21.28;64.45
75961;SHT30;64644;48.914;2.254;2023-10-09T09:13:43;21.38;64.24
75961;SHT30;64644;48.914;2.254;2023-10-09T09:21:18;21.63;63.36
75961;SHT30;64644;48.914;2.254;2023-10-09T09:23:58;21.72;63.60
75961;SHT30;64644;48.914;2.254;2023-10-09T09:26:38;21.83;63.30
75961;SHT30;64644;48.914;2.254;2023-10-09T09:29:11;21.92;62.74
75961;SHT30;64644;48.914;2.254;2023-10-09T09:31:53;22.01;63.04
75961;SHT30;64644;48.914;2.254;2023-10-09T09:34:19;22.11;62.56
75961;SHT30;64644;48.914;2.254;2023-10-09T09:36:54;22.24;62.82
75961;SHT30;64644;48.914;2.254;2023-10-09T09:39:26;22.37;63.31
75961;SHT30;64644;48.914;2.254;2023-10-09T09:41:59;22.45;63.47
75961;SHT30;64644;48.914;2.254;2023-10-09T09:44:39;22.56;62.60
75961;SHT30;64644;48.914;2.254;2023-10-09T09:47:14;22.63;62.02
75961;SHT30;64644;48.914;2.254;2023-10-09T09:49:50;22.73;61.33
75961;SHT30;64644;48.914;2.254;2023-10-09T09:52:16;22.83;61.46
75961;SHT30;64644;48.914;2.254;2023-10-09T09:54:45;22.96;61.13
75961;SHT30;64644;48.914;2.254;2023-10-09T09:57:14;23.00;61.27
75961;SHT30;64644;48.914;2.254;2023-10-09T09:59:52;23.10;61.27
75961;SHT30;64644;48.914;2.254;2023-10-09T10:02:35;23.21;60.53
75961;SHT30;64644;48.914;2.254;2023-10-09T10:05:05;23.31;60.29
75961;SHT30;64644;48.914;2.254;2023-10-09T10:07:33;23.41;60.10
75961;SHT30;64644;48.914;2.254;2023-10-09T10:10:33;23.49;59.72
75961;SHT30;64644;48.914;2.254;2023-10-09T10:13:08;23.62;59.51
75961;SHT30;64644;48.914;2.254;2023-10-09T10:16:05;23.73;58.76
75961;SHT30;64644;48.914;2.254;2023-10-09T10:19:04;23.86;58.76
75961;SHT30;64644;48.914;2.254;2023-10-09T10:21:33;23.99;58.28
75961;SHT30;64644;48.914;2.254;2023-10-09T10:29:45;24.29;56.64
75961;SHT30;64644;48.914;2.254;2023-10-09T10:32:12;24.41;57.29
75961;SHT30;64644;48.914;2.254;2023-10-09T10:34:59;24.49;57.66
75961;SHT30;64644;48.914;2.254;2023-10-09T10:37:38;24.65;57.74
75961;SHT30;64644;48.914;2.254;2023-10-09T10:40:25;24.82;57.58
75961;SHT30;64644;48.914;2.254;2023-10-09T10:43:05;24.89;56.30
75961;SHT30;64644;48.914;2.254;2023-10-09T10:45:44;24.86;55.11
75961;SHT30;64644;48.914;2.254;2023-10-09T10:48:10;24.86;54.81
75961;SHT30;64644;48.914;2.254;2023-10-09T10:50:49;24.89;55.72
75961;SHT30;64644;48.914;2.254;2023-10-09T10:53:24;24.82;53.91
75961;SHT30;64644;48.914;2.254;2023-10-09T10:56:01;24.82;54.43
75961;SHT30;64644;48.914;2.254;2023-10-09T10:58:41;24.82;54.48
75961;SHT30;64644;48.914;2.254;2023-10-09T11:01:19;24.77;53.43
75961;SHT30;64644;48.914;2.254;2023-10-09T11:03:49;24.77;52.94
75961;SHT30;64644;48.914;2.254;2023-10-09T11:06:28;24.77;53.80
75961;SHT30;64644;48.914;2.254;2023-10-09T11:09:11;24.86;54.49
75961;SHT30;64644;48.914;2.254;2023-10-09T11:11:50;24.84;53.38
75961;SHT30;64644;48.914;2.254;2023-10-09T11:14:47;24.94;51.60
75961;SHT30;64644;48.914;2.254;2023-10-09T11:17:35;25.14;51.30
75961;SHT30;64644;48.914;2.254;2023-10-09T11:20:02;25.24;49.56
75961;SHT30;64644;48.914;2.254;2023-10-09T11:22:51;25.37;49.91
75961;SHT30;64644;48.914;2.254;2023-10-09T11:25:36;25.45;50.67
75961;SHT30;64644;48.914;2.254;2023-10-09T11:28:15;25.42;50.35
75961;SHT30;64644;48.914;2.254;2023-10-09T11:30:53;25.35;49.04
75961;SHT30;64644;48.914;2.254;2023-10-09T11:33:21;25.35;48.83
75961;SHT30;64644;48.914;2.254;2023-10-09T11:35:56;25.34;49.47
75961;SHT30;64644;48.914;2.254;2023-10-09T11:38:25;25.35;50.47
75961;SHT30;64644;48.914;2.254;2023-10-09T11:40:53;25.30;50.22
75961;SHT30;64644;48.914;2.254;2023-10-09T11:43:19;25.24;50.17
75961;SHT30;64644;48.914;2.254;2023-10-09T11:46:10;25.18;51.14
75961;SHT30;64644;48.914;2.254;2023-10-09T11:49:03;25.16;49.98
75961;SHT30;64644;48.914;2.254;2023-10-09T11:51:52;25.13;51.10
75961;SHT30;64644;48.914;2.254;2023-10-09T11:54:49;25.06;50.39
75961;SHT30;64644;48.914;2.254;2023-10-09T11:57:14;25.00;49.90
75961;SHT30;64644;48.914;2.254;2023-10-09T11:59:42;24.96;50.51
75961;SHT30;64644;48.914;2.254;2023-10-09T12:02:09;24.89;50.45
75961;SHT30;64644;48.914;2.254;2023-10-09T12:04:39;24.83;51.94
75961;SHT30;64644;48.914;2.254;2023-10-09T12:07:10;24.77;51.46
75961;SHT30;64644;48.914;2.254;2023-10-09T12:09:39;24.71;51.54
75961;SHT30;64644;48.914;2.254;2023-10-09T12:12:06;24.69;51.49
75961;SHT30;64644;48.914;2.254;2023-10-09T12:14:33;24.68;51.78
75961;SHT30;64644;48.914;2.254;2023-10-09T12:17:04;24.68;52.19
75961;SHT30;64644;48.914;2.254;2023-10-09T12:19:33;24.71;51.92
75961;SHT30;64644;48.914;2.254;2023-10-09T12:22:00;24.71;50.97
75961;SHT30;64644;48.914;2.254;2023-10-09T12:24:26;24.75;51.31
75961;SHT30;64644;48.914;2.254;2023-10-09T12:26:53;24.75;52.04
75961;SHT30;64644;48.914;2.254;2023-10-09T12:29:18;24.77;52.46
75961;SHT30;64644;48.914;2.254;2023-10-09T12:31:45;24.83;51.80
75961;SHT30;64644;48.914;2.254;2023-10-09T12:34:11;24.89;51.33
75961;SHT30;64644;48.914;2.254;2023-10-09T12:36:42;24.93;51.91
75961;SHT30;64644;48.914;2.254;2023-10-09T12:39:09;25.00;51.90
75961;SHT30;64644;48.914;2.254;2023-10-09T12:41:43;25.07;51.78
75961;SHT30;64644;48.914;2.254;2023-10-09T12:44:08;25.16;51.51
75961;SHT30;64644;48.914;2.254;2023-10-09T12:46:42;25.18;50.68
75961;SHT30;64644;48.914;2.254;2023-10-09T12:49:18;25.25;50.19
75961;SHT30;64644;48.914;2.254;2023-10-09T12:51:44;25.28;50.68
75961;SHT30;64644;48.914;2.254;2023-10-09T12:54:09;25.31;51.57
75961;SHT30;64644;48.914;2.254;2023-10-09T12:56:35;25.34;52.05
75961;SHT30;64644;48.914;2.254;2023-10-09T12:59:03;25.37;51.15
75961;SHT30;64644;48.914;2.254;2023-10-09T13:01:42;25.39;51.82
75961;SHT30;64644;48.914;2.254;2023-10-09T13:04:10;25.39;52.20
75961;SHT30;64644;48.914;2.254;2023-10-09T13:06:38;25.44;51.77
75961;SHT30;64644;48.914;2.254;2023-10-09T13:09:11;25.46;51.50
75961;SHT30;64644;48.914;2.254;2023-10-09T13:11:39;25.49;49.17
75961;SHT30;64644;48.914;2.254;2023-10-09T13:14:06;25.45;50.66
75961;SHT30;64644;48.914;2.254;2023-10-09T13:16:42;25.42;51.11
75961;SHT30;64644;48.914;2.254;2023-10-09T13:19:07;25.37;51.75
75961;SHT30;64644;48.914;2.254;2023-10-09T13:21:35;25.33;52.07
75961;SHT30;64644;48.914;2.254;2023-10-09T13:24:04;25.28;52.48
75961;SHT30;64644;48.914;2.254;2023-10-09T13:26:29;25.23;52.59
75961;SHT30;64644;48.914;2.254;2023-10-09T13:28:58;25.21;52.68
75961;SHT30;64644;48.914;2.254;2023-10-09T13:31:25;25.17;53.05
75961;SHT30;64644;48.914;2.254;2023-10-09T13:33:54;25.14;52.38
75961;SHT30;64644;48.914;2.254;2023-10-09T13:36:21;25.10;52.47
75961;SHT30;64644;48.914;2.254;2023-10-09T13:38:58;25.07;52.38
75961;SHT30;64644;48.914;2.254;2023-10-09T13:41:43;25.00;52.79
75961;SHT30;64644;48.914;2.254;2023-10-09T13:44:09;24.97;51.74
75961;SHT30;64644;48.914;2.254;2023-10-09T13:46:34;24.93;51.71
75961;SHT30;64644;48.914;2.254;2023-10-09T13:49:08;24.93;51.42
75961;SHT30;64644;48.914;2.254;2023-10-09T13:51:38;24.90;52.85
75961;SHT30;64644;48.914;2.254;2023-10-09T13:54:09;24.87;53.12
75961;SHT30;64644;48.914;2.254;2023-10-09T13:56:34;24.83;53.64
75961;SHT30;64644;48.914;2.254;2023-10-09T13:59:04;24.80;53.70
75961;SHT30;64644;48.914;2.254;2023-10-09T14:01:36;24.77;53.51
75961;SHT30;64644;48.914;2.254;2023-10-09T14:04:01;24.77;54.18
75961;SHT30;64644;48.914;2.254;2023-10-09T14:06:31;24.72;54.52
75961;SHT30;64644;48.914;2.254;2023-10-09T14:08:58;24.69;54.77
75961;SHT30;64644;48.914;2.254;2023-10-09T14:11:23;24.66;54.82
75961;SHT30;64644;48.914;2.254;2023-10-09T14:13:50;24.68;54.83
75961;SHT30;64644;48.914;2.254;2023-10-09T14:16:16;24.61;55.09
75961;SHT30;64644;48.914;2.254;2023-10-09T14:18:56;24.63;54.29
75961;SHT30;64644;48.914;2.254;2023-10-09T14:21:27;24.65;52.58
75961;SHT30;64644;48.914;2.254;2023-10-09T14:23:57;24.68;52.08
75961;SHT30;64644;48.914;2.254;2023-10-09T14:26:26;24.66;52.41
75961;SHT30;64644;48.914;2.254;2023-10-09T14:28:53;24.66;52.47
75961;SHT30;64644;48.914;2.254;2023-10-09T14:31:25;24.61;53.06
75961;SHT30;64644;48.914;2.254;2023-10-09T14:33:56;24.55;53.01
75961;SHT30;64644;48.914;2.254;2023-10-09T14:36:23;24.49;53.46
75961;SHT30;64644;48.914;2.254;2023-10-09T14:38:50;24.47;53.56
75961;SHT30;64644;48.914;2.254;2023-10-09T14:41:21;24.42;53.43
75961;SHT30;64644;48.914;2.254;2023-10-09T14:43:49;24.41;54.37
75961;SHT30;64644;48.914;2.254;2023-10-09T14:46:15;24.34;54.91
75961;SHT30;64644;48.914;2.254;2023-10-09T14:48:40;24.29;55.10
75961;SHT30;64644;48.914;2.254;2023-10-09T14:51:11;24.25;54.94
75961;SHT30;64644;48.914;2.254;2023-10-09T14:53:38;24.21;54.80
75961;SHT30;64644;48.914;2.254;2023-10-09T14:56:05;24.20;54.83
75961;SHT30;64644;48.914;2.254;2023-10-09T14:58:34;24.16;54.60
75961;SHT30;64644;48.914;2.254;2023-10-09T15:01:12;24.16;55.31
75961;SHT30;64644;48.914;2.254;2023-10-09T15:03:40;24.11;55.48
75961;SHT30;64644;48.914;2.254;2023-10-09T15:06:07;24.07;55.72
75961;SHT30;64644;48.914;2.254;2023-10-09T15:08:36;24.03;55.63
75961;SHT30;64644;48.914;2.254;2023-10-09T15:11:01;24.00;55.65
75961;SHT30;64644;48.914;2.254;2023-10-09T15:13:26;23.99;56.21
75961;SHT30;64644;48.914;2.254;2023-10-09T15:15:54;23.96;56.08
75961;SHT30;64644;48.914;2.254;2023-10-09T15:18:21;23.90;55.99
75961;SHT30;64644;48.914;2.254;2023-10-09T15:20:47;23.90;56.06
75961;SHT30;64644;48.914;2.254;2023-10-09T15:23:13;23.86;56.06
75961;SHT30;64644;48.914;2.254;2023-10-09T15:25:38;23.83;55.88
75961;SHT30;64644;48.914;2.254;2023-10-09T15:28:10;23.82;56.00
75961;SHT30;64644;48.914;2.254;2023-10-09T15:30:37;23.79;56.28
75961;SHT30;64644;48.914;2.254;2023-10-09T15:33:06;23.75;56.42
75961;SHT30;64644;48.914;2.254;2023-10-09T15:35:33;23.73;56.72
75961;SHT30;64644;48.914;2.254;2023-10-09T15:38:02;23.67;56.73
75961;SHT30;64644;48.914;2.254;2023-10-09T15:40:32;23.67;56.91
75961;SHT30;64644;48.914;2.254;2023-10-09T15:43:02;23.65;57.15
75961;SHT30;64644;48.914;2.254;2023-10-09T15:45:30;23.62;57.08
75961;SHT30;64644;48.914;2.254;2023-10-09T15:47:56;23.61;57.27
75961;SHT30;64644;48.914;2.254;2023-10-09T15:50:22;23.58;57.44
75961;SHT30;64644;48.914;2.254;2023-10-09T15:52:54;23.52;57.71
75961;SHT30;64644;48.914;2.254;2023-10-09T15:55:20;23.51;57.49
75961;SHT30;64644;48.914;2.254;2023-10-09T15:57:49;23.49;57.21
75961;SHT30;64644;48.914;2.254;2023-10-09T16:00:14;23.48;56.93
75961;SHT30;64644;48.914;2.254;2023-10-09T16:02:43;23.44;57.08
75961;SHT30;64644;48.914;2.254;2023-10-09T16:05:09;23.44;57.12
75961;SHT30;64644;48.914;2.254;2023-10-09T16:07:37;23.42;57.46
75961;SHT30;64644;48.914;2.254;2023-10-09T16:10:07;23.37;57.35
75961;SHT30;64644;48.914;2.254;2023-10-09T16:12:40;23.35;57.18
75961;SHT30;64644;48.914;2.254;2023-10-09T16:15:09;23.31;57.21
75961;SHT30;64644;48.914;2.254;2023-10-09T16:17:35;23.28;57.19
75961;SHT30;64644;48.914;2.254;2023-10-09T16:20:03;23.24;57.42